createdAt,value
2019-05-02T00:02:07.281Z,18.87
2019-05-02T00:04:36.739Z,17.77
2019-05-02T00:07:07.841Z,17.33
2019-05-02T00:09:47.249Z,16.40
2019-05-02T00:12:13.494Z,17.73
2019-05-02T00:14:44.256Z,17.07
2019-05-02T00:17:13.890Z,17.30
2019-05-02T00:19:45.054Z,17.93
2019-05-02T00:22:17.204Z,17.87
2019-05-02T00:24:47.025Z,18.37
2019-05-02T00:27:16.485Z,17.97
2019-05-02T00:29:45.885Z,18.93
2019-05-02T00:32:18.296Z,18.40
2019-05-02T00:34:46.265Z,18.27
2019-05-02T00:37:18.766Z,17.50
2019-05-02T00:39:49.297Z,18.47
2019-05-02T00:42:22.540Z,17.40
2019-05-02T00:44:48.900Z,19.53
2019-05-02T00:47:23.392Z,18.60
2019-05-02T00:49:52.789Z,18.93
2019-05-02T00:52:22.021Z,17.90
2019-05-02T00:54:55.044Z,18.07
2019-05-02T00:57:22.284Z,18.23
2019-05-02T00:59:51.654Z,17.77
2019-05-02T01:02:25.431Z,18.50
2019-05-02T01:04:59.261Z,18.27
2019-05-02T01:07:26.926Z,17.40
2019-05-02T01:09:56.574Z,17.23
2019-05-02T01:12:26.907Z,17.33
2019-05-02T01:14:56.206Z,17.37
2019-05-02T01:17:26.013Z,16.60
2019-05-02T01:19:56.707Z,16.50
2019-05-02T01:22:25.988Z,18.20
2019-05-02T01:24:55.440Z,17.63
2019-05-02T01:27:29.280Z,15.93
2019-05-02T01:30:09.434Z,16.30
2019-05-02T01:32:40.334Z,14.27
2019-05-02T01:35:11.350Z,17.40
2019-05-02T01:37:58.741Z,17.83
2019-05-02T01:40:28.041Z,17.30
2019-05-02T01:42:59.570Z,17.20
2019-05-02T01:45:28.993Z,15.73
2019-05-02T01:47:58.362Z,16.27
2019-05-02T01:50:28.915Z,16.23
2019-05-02T01:53:00.171Z,17.07
2019-05-02T01:55:29.580Z,14.63
2019-05-02T01:57:58.850Z,16.03
2019-05-02T02:00:28.139Z,17.27
2019-05-02T02:02:57.497Z,16.90
2019-05-02T02:05:27.576Z,16.67
2019-05-02T02:07:57.900Z,16.13
2019-05-02T02:10:27.265Z,16.20
2019-05-02T02:13:04.663Z,16.07
2019-05-02T02:15:29.021Z,16.63
2019-05-02T02:17:58.840Z,15.17
2019-05-02T02:20:29.743Z,15.23
2019-05-02T02:23:00.766Z,16.57
2019-05-02T02:25:36.153Z,17.07
2019-05-02T02:28:05.797Z,16.63
2019-05-02T02:30:35.152Z,17.13
2019-05-02T02:33:07.566Z,16.60
2019-05-02T02:35:35.855Z,17.50
2019-05-02T02:38:05.443Z,17.70
2019-05-02T02:40:35.650Z,18.13
2019-05-02T02:43:30.252Z,17.17
2019-05-02T02:46:01.398Z,16.70
2019-05-02T02:48:33.999Z,16.43
2019-05-02T02:51:02.736Z,16.10
2019-05-02T02:53:32.241Z,15.70
2019-05-02T02:56:04.584Z,15.70
2019-05-02T02:58:44.085Z,16.70
2019-05-02T03:01:05.676Z,15.87
2019-05-02T03:03:35.755Z,15.93
2019-05-02T03:06:07.719Z,15.70
2019-05-02T03:08:45.142Z,15.97
2019-05-02T03:11:08.583Z,16.07
2019-05-02T03:13:51.462Z,16.10
2019-05-02T03:16:21.167Z,15.63
2019-05-02T03:18:50.487Z,14.97
2019-05-02T03:21:22.315Z,15.00
2019-05-02T03:24:01.415Z,17.07
2019-05-02T03:26:22.416Z,17.03
2019-05-02T03:28:58.387Z,16.63
2019-05-02T03:31:29.154Z,16.60
2019-05-02T03:33:59.799Z,17.53
2019-05-02T03:36:30.153Z,17.53
2019-05-02T03:38:56.135Z,17.80
2019-05-02T03:41:25.813Z,18.57
2019-05-02T03:44:09.958Z,17.90
2019-05-02T03:46:26.450Z,16.53
2019-05-02T03:49:05.748Z,17.43
2019-05-02T03:51:26.909Z,17.23
2019-05-02T03:54:05.783Z,17.73
2019-05-02T03:56:27.481Z,18.13
2019-05-02T03:58:58.257Z,18.23
2019-05-02T04:01:27.993Z,16.87
2019-05-02T04:03:57.361Z,16.13
2019-05-02T04:06:26.681Z,17.43
2019-05-02T04:09:00.110Z,16.90
2019-05-02T04:11:37.874Z,16.50
2019-05-02T04:13:58.927Z,17.10
2019-05-02T04:16:29.553Z,15.80
2019-05-02T04:19:01.264Z,16.27
2019-05-02T04:21:30.935Z,16.93
2019-05-02T04:24:10.778Z,16.93
2019-05-02T04:26:31.644Z,15.50
2019-05-02T04:29:01.016Z,16.30
2019-05-02T04:31:33.633Z,15.47
2019-05-02T04:34:01.525Z,15.70
2019-05-02T04:36:30.901Z,15.90
2019-05-02T04:39:05.842Z,16.40
2019-05-02T04:41:34.138Z,15.43
2019-05-02T04:44:02.376Z,17.77
2019-05-02T04:46:31.680Z,16.90
2019-05-02T04:49:01.270Z,16.77
2019-05-02T04:51:31.946Z,15.97
2019-05-02T04:54:01.724Z,17.60
2019-05-02T04:56:31.148Z,16.80
2019-05-02T04:59:01.967Z,16.33
2019-05-02T05:01:42.207Z,16.47
2019-05-02T05:04:03.326Z,16.43
2019-05-02T05:06:32.934Z,15.93
2019-05-02T05:09:04.005Z,15.57
2019-05-02T05:11:33.432Z,16.20
2019-05-02T05:14:02.779Z,17.47
2019-05-02T05:16:32.068Z,16.30
2019-05-02T05:19:01.410Z,16.37
2019-05-02T05:21:30.732Z,16.30
2019-05-02T05:24:01.761Z,16.67
2019-05-02T05:26:41.048Z,15.57
2019-05-02T05:29:08.223Z,16.73
2019-05-02T05:31:38.224Z,16.27
2019-05-02T05:34:09.803Z,16.30
2019-05-02T05:36:38.918Z,15.97
2019-05-02T05:39:11.565Z,15.83
2019-05-02T05:41:42.759Z,15.97
2019-05-02T05:44:10.381Z,14.53
2019-05-02T05:46:42.527Z,14.67
2019-05-02T05:49:20.129Z,15.47
2019-05-02T05:51:41.930Z,14.90
2019-05-02T05:54:11.222Z,15.07
2019-05-02T05:56:43.244Z,14.87
2019-05-02T05:59:11.633Z,15.27
2019-05-02T06:01:41.475Z,14.97
2019-05-02T06:04:13.841Z,15.30
2019-05-02T06:06:41.952Z,14.63
2019-05-02T06:09:13.745Z,15.43
2019-05-02T06:11:43.161Z,14.13
2019-05-02T06:14:12.498Z,14.53
2019-05-02T06:16:46.642Z,14.23
2019-05-02T06:19:13.134Z,14.13
2019-05-02T06:21:45.268Z,14.23
2019-05-02T06:24:15.794Z,13.90
2019-05-02T06:26:49.670Z,15.17
2019-05-02T06:29:18.655Z,14.57
2019-05-02T06:31:47.719Z,16.10
2019-05-02T06:34:17.233Z,14.60
2019-05-02T06:36:46.680Z,14.50
2019-05-02T06:39:16.123Z,14.33
2019-05-02T06:41:45.424Z,15.13
2019-05-02T06:44:18.602Z,14.67
2019-05-02T06:46:45.903Z,14.27
2019-05-02T06:49:15.343Z,14.53
2019-05-02T06:51:44.760Z,13.53
2019-05-02T06:54:17.996Z,14.03
2019-05-02T06:56:47.892Z,14.77
2019-05-02T06:59:18.435Z,14.73
2019-05-02T07:01:52.422Z,14.93
2019-05-02T07:04:22.969Z,14.37
2019-05-02T07:06:58.304Z,13.67
2019-05-02T07:09:21.617Z,13.93
2019-05-02T07:11:57.418Z,14.97
2019-05-02T07:14:23.666Z,14.20
2019-05-02T07:16:56.510Z,14.10
2019-05-02T07:19:33.730Z,14.70
2019-05-02T07:22:04.464Z,14.63
2019-05-02T07:24:34.203Z,14.70
2019-05-02T07:27:03.615Z,15.13
2019-05-02T07:29:32.992Z,14.03
2019-05-02T07:32:02.450Z,14.77
2019-05-02T07:34:31.791Z,14.37
2019-05-02T07:37:01.605Z,13.50
2019-05-02T07:39:30.906Z,13.57
2019-05-02T07:42:05.752Z,14.77
2019-05-02T07:44:34.481Z,14.90
2019-05-02T07:47:04.751Z,14.43
2019-05-02T07:49:34.502Z,13.40
2019-05-02T07:52:04.382Z,14.93
2019-05-02T07:54:33.854Z,13.30
2019-05-02T07:57:03.163Z,13.93
2019-05-02T07:59:32.544Z,13.97
2019-05-02T08:02:01.950Z,13.50
2019-05-02T08:04:31.331Z,13.73
2019-05-02T08:07:00.706Z,13.80
2019-05-02T08:09:30.047Z,14.90
2019-05-02T08:11:59.413Z,14.60
2019-05-02T08:14:29.271Z,14.47
2019-05-02T08:17:05.775Z,13.37
2019-05-02T08:19:32.051Z,14.07
2019-05-02T08:22:04.702Z,14.17
2019-05-02T08:24:33.022Z,14.20
2019-05-02T08:27:05.385Z,14.67
2019-05-02T08:29:36.425Z,14.27
2019-05-02T08:32:05.897Z,14.20
2019-05-02T08:34:35.469Z,13.80
2019-05-02T08:37:05.066Z,14.10
2019-05-02T08:39:35.267Z,14.53
2019-05-02T08:42:05.466Z,14.67
2019-05-02T08:44:34.846Z,14.03
2019-05-02T08:47:04.275Z,14.07
2019-05-02T08:49:33.681Z,14.47
2019-05-02T08:52:03.072Z,14.57
2019-05-02T08:54:33.001Z,14.13
2019-05-02T08:57:03.531Z,14.63
2019-05-02T08:59:32.900Z,13.83
2019-05-02T09:02:02.313Z,14.27
2019-05-02T09:04:32.668Z,13.70
2019-05-02T09:07:01.998Z,13.70
2019-05-02T09:09:31.401Z,14.23
2019-05-02T09:12:09.762Z,14.23
2019-05-02T09:14:32.271Z,13.40
2019-05-02T09:17:08.056Z,13.57
2019-05-02T09:19:34.877Z,12.83
2019-05-02T09:22:07.572Z,13.87
2019-05-02T09:24:35.355Z,13.23
2019-05-02T09:27:04.955Z,14.30
2019-05-02T09:29:37.285Z,13.20
2019-05-02T09:32:05.518Z,13.17
2019-05-02T09:34:34.958Z,13.00
2019-05-02T09:37:04.320Z,12.67
2019-05-02T09:39:36.467Z,12.27
2019-05-02T09:42:06.665Z,11.80
2019-05-02T09:44:36.152Z,12.27
2019-05-02T09:47:05.668Z,12.87
2019-05-02T09:49:34.978Z,13.10
2019-05-02T09:52:04.400Z,14.70
2019-05-02T09:54:37.000Z,12.07
2019-05-02T09:57:04.838Z,13.33
2019-05-02T09:59:34.302Z,12.53
2019-05-02T10:02:05.302Z,12.67
2019-05-02T10:04:34.702Z,11.60
2019-05-02T10:07:04.200Z,12.60
2019-05-02T10:09:33.643Z,12.50
2019-05-02T10:12:03.027Z,13.10
2019-05-02T10:14:33.056Z,12.83
2019-05-02T10:17:06.936Z,13.63
2019-05-02T10:19:33.752Z,14.50
2019-05-02T10:22:03.331Z,13.17
2019-05-02T10:24:32.824Z,12.20
2019-05-02T10:27:08.406Z,12.63
2019-05-02T10:29:33.267Z,12.20
2019-05-02T10:32:02.771Z,9.90
2019-05-02T10:34:32.992Z,11.10
2019-05-02T10:37:03.057Z,11.23
2019-05-02T10:39:33.958Z,11.03
2019-05-02T10:42:03.886Z,10.00
2019-05-02T10:44:36.462Z,10.13
2019-05-02T10:47:04.579Z,10.10
2019-05-02T10:49:42.632Z,10.67
2019-05-02T10:52:12.358Z,10.10
2019-05-02T10:54:42.238Z,10.77
2019-05-02T10:57:12.625Z,10.43
2019-05-02T10:59:42.279Z,10.27
2019-05-02T11:02:19.407Z,9.80
2019-05-02T11:04:52.336Z,9.63
2019-05-02T11:07:22.665Z,9.47
2019-05-02T11:09:56.939Z,10.13
2019-05-02T11:12:46.190Z,9.53
2019-05-02T11:15:32.573Z,9.63
2019-05-02T11:18:02.366Z,10.57
2019-05-02T11:20:32.259Z,10.63
2019-05-02T11:23:02.265Z,10.07
2019-05-02T11:25:32.020Z,10.57
2019-05-02T11:28:05.488Z,10.53
2019-05-02T11:30:32.578Z,9.87
2019-05-02T11:33:03.058Z,10.40
2019-05-02T11:35:32.652Z,10.07
2019-05-02T11:38:02.623Z,9.73
2019-05-02T11:40:32.251Z,10.43
2019-05-02T11:43:05.171Z,9.33
2019-05-02T11:45:32.738Z,9.00
2019-05-02T11:48:09.364Z,9.17
2019-05-02T11:50:35.422Z,8.77
2019-05-02T11:53:09.146Z,9.03
2019-05-02T11:55:36.400Z,9.30
2019-05-02T11:58:08.136Z,9.50
2019-05-02T12:00:39.805Z,9.50
2019-05-02T12:03:12.546Z,8.90
2019-05-02T12:05:43.216Z,9.67
2019-05-02T12:08:12.596Z,9.73
2019-05-02T12:10:42.380Z,10.13
2019-05-02T12:13:15.806Z,8.50
2019-05-02T12:15:44.391Z,10.20
2019-05-02T12:18:13.980Z,9.27
2019-05-02T12:20:57.626Z,9.07
2019-05-02T12:23:27.116Z,9.67
2019-05-02T12:25:56.506Z,8.40
2019-05-02T12:28:25.999Z,7.77
2019-05-02T12:30:55.375Z,7.57
2019-05-02T12:33:26.465Z,7.93
2019-05-02T12:35:55.850Z,7.30
2019-05-02T12:38:25.281Z,7.50
2019-05-02T12:40:57.725Z,7.70
2019-05-02T12:43:25.845Z,7.37
2019-05-02T12:45:55.229Z,8.40
2019-05-02T12:48:24.696Z,8.90
2019-05-02T12:50:54.127Z,7.80
2019-05-02T12:53:23.555Z,8.40
2019-05-02T12:55:53.199Z,8.50
2019-05-02T12:58:22.599Z,8.17
2019-05-02T13:00:53.064Z,8.00
2019-05-02T13:03:39.367Z,7.23
2019-05-02T13:06:08.747Z,7.47
2019-05-02T13:08:52.088Z,7.10
2019-05-02T13:11:26.027Z,7.03
2019-05-02T13:13:55.540Z,7.60
2019-05-02T13:16:24.869Z,6.80
2019-05-02T13:18:57.146Z,6.63
2019-05-02T13:21:39.200Z,6.47
2019-05-02T13:24:07.297Z,6.73
2019-05-02T13:26:34.707Z,6.93
2019-05-02T13:29:04.154Z,7.20
2019-05-02T13:31:37.781Z,7.80
2019-05-02T13:34:23.751Z,7.13
2019-05-02T13:36:54.505Z,6.63
2019-05-02T13:39:43.313Z,7.87
2019-05-02T13:42:13.968Z,7.57
2019-05-02T13:44:47.935Z,7.87
2019-05-02T13:47:18.962Z,6.87
2019-05-02T13:49:53.818Z,6.90
2019-05-02T13:52:19.687Z,7.60
2019-05-02T13:54:49.661Z,7.10
2019-05-02T13:57:19.170Z,7.50
2019-05-02T13:59:48.510Z,6.47
2019-05-02T14:02:36.441Z,5.73
2019-05-02T14:05:16.547Z,5.70
2019-05-02T14:07:57.108Z,5.73
2019-05-02T14:10:33.672Z,5.90
2019-05-02T14:13:03.979Z,5.20
2019-05-02T14:15:34.918Z,6.27
2019-05-02T14:18:04.422Z,6.07
2019-05-02T14:20:37.119Z,6.30
2019-05-02T14:23:05.188Z,5.90
2019-05-02T14:25:34.488Z,5.93
2019-05-02T14:28:04.073Z,6.33
2019-05-02T14:30:39.927Z,5.47
2019-05-02T14:33:06.755Z,5.47
2019-05-02T14:35:39.558Z,5.73
2019-05-02T14:38:09.816Z,5.27
2019-05-02T14:40:43.732Z,6.27
2019-05-02T14:43:14.870Z,5.70
2019-05-02T14:45:44.445Z,5.90
2019-05-02T14:48:21.393Z,5.80
2019-05-02T14:50:48.031Z,6.10
2019-05-02T14:53:22.116Z,5.60
2019-05-02T14:55:50.080Z,6.23
2019-05-02T14:58:19.476Z,5.73
2019-05-02T15:00:52.718Z,5.73
2019-05-02T15:03:24.646Z,5.63
2019-05-02T15:05:52.787Z,5.70
2019-05-02T15:08:22.920Z,5.37
2019-05-02T15:10:56.470Z,6.00
2019-05-02T15:13:23.482Z,6.07
2019-05-02T15:15:53.066Z,5.60
2019-05-02T15:18:22.815Z,5.30
2019-05-02T15:20:52.269Z,5.03
2019-05-02T15:23:22.742Z,5.93
2019-05-02T15:25:55.937Z,5.10
2019-05-02T15:28:23.310Z,5.50
2019-05-02T15:31:05.017Z,5.73
2019-05-02T15:33:36.468Z,5.07
2019-05-02T15:36:07.732Z,5.57
2019-05-02T15:38:42.104Z,5.43
2019-05-02T15:41:12.615Z,5.27
2019-05-02T15:43:44.612Z,5.50
2019-05-02T15:46:15.775Z,5.63
2019-05-02T15:48:42.259Z,5.17
2019-05-02T15:51:12.340Z,5.53
2019-05-02T15:53:49.740Z,5.40
2019-05-02T15:56:20.291Z,5.50
2019-05-02T15:58:48.618Z,5.57
2019-05-02T16:01:25.610Z,5.90
2019-05-02T16:04:07.259Z,5.37
2019-05-02T16:06:37.341Z,5.50
2019-05-02T16:09:08.531Z,5.53
2019-05-02T16:11:37.887Z,5.23
2019-05-02T16:14:07.307Z,5.27
2019-05-02T16:16:41.117Z,5.30
2019-05-02T16:19:07.645Z,5.40
2019-05-02T16:21:47.868Z,5.27
2019-05-02T16:24:23.067Z,5.63
2019-05-02T16:26:56.416Z,5.13
2019-05-02T16:29:28.463Z,5.50
2019-05-02T16:31:59.826Z,5.10
2019-05-02T16:34:33.904Z,5.53
2019-05-02T16:37:01.112Z,5.10
2019-05-02T16:39:32.388Z,5.57
2019-05-02T16:42:04.738Z,5.60
2019-05-02T16:44:35.052Z,5.67
2019-05-02T16:47:04.846Z,5.43
2019-05-02T16:49:34.132Z,6.03
2019-05-02T16:52:07.266Z,5.40
2019-05-02T16:54:41.455Z,5.40
2019-05-02T16:57:05.856Z,5.50
2019-05-02T16:59:35.521Z,5.90
2019-05-02T17:02:07.961Z,5.50
2019-05-02T17:04:36.008Z,6.43
2019-05-02T17:07:07.076Z,6.00
2019-05-02T17:09:54.841Z,7.80
2019-05-02T17:12:24.285Z,6.57
2019-05-02T17:15:13.690Z,6.30
2019-05-02T17:17:42.460Z,6.60
2019-05-02T17:20:16.556Z,6.30
2019-05-02T17:22:43.941Z,6.23
2019-05-02T17:25:14.708Z,7.27
2019-05-02T17:27:44.061Z,6.90
2019-05-02T17:30:14.518Z,6.70
2019-05-02T17:32:44.020Z,7.50
2019-05-02T17:35:14.700Z,6.87
2019-05-02T17:37:48.553Z,6.87
2019-05-02T17:40:16.799Z,6.97
2019-05-02T17:42:47.337Z,6.77
2019-05-02T17:45:17.266Z,6.83
2019-05-02T17:47:47.325Z,6.23
2019-05-02T17:50:25.221Z,8.00
2019-05-02T17:53:01.057Z,10.80
2019-05-02T17:55:27.756Z,10.43
2019-05-02T17:57:57.100Z,7.80
2019-05-02T18:00:28.136Z,10.07
2019-05-02T18:02:57.567Z,10.00
2019-05-02T18:05:32.038Z,9.93
2019-05-02T18:07:58.044Z,10.07
2019-05-02T18:10:27.474Z,11.37
2019-05-02T18:12:59.915Z,12.23
2019-05-02T18:15:29.864Z,11.43
2019-05-02T18:17:59.892Z,11.83
2019-05-02T18:20:30.103Z,11.90
2019-05-02T18:22:59.488Z,13.43
2019-05-02T18:25:28.832Z,14.77
2019-05-02T18:27:58.206Z,15.50
2019-05-02T18:30:27.578Z,16.30
2019-05-02T18:32:57.773Z,14.00
2019-05-02T18:35:28.042Z,15.43
2019-05-02T18:37:57.421Z,14.67
2019-05-02T18:40:29.338Z,15.10
2019-05-02T18:43:02.162Z,16.80
2019-05-02T18:45:29.252Z,18.73
2019-05-02T18:48:02.137Z,18.37
2019-05-02T18:50:44.521Z,17.30
2019-05-02T18:53:10.174Z,18.33
2019-05-02T18:55:42.031Z,19.80
2019-05-02T18:58:12.756Z,18.97
2019-05-02T19:00:42.718Z,19.80
2019-05-02T19:03:16.964Z,19.00
2019-05-02T19:05:46.415Z,24.67
2019-05-02T19:08:27.924Z,29.73
2019-05-02T19:11:02.609Z,23.33
2019-05-02T19:13:17.704Z,20.17
2019-05-02T19:15:48.887Z,18.70
2019-05-02T19:18:19.656Z,17.27
2019-05-02T19:20:57.546Z,16.93
2019-05-02T19:23:27.032Z,17.63
2019-05-02T19:25:56.579Z,21.33
2019-05-02T19:28:29.033Z,18.60
2019-05-02T19:31:03.002Z,18.27
2019-05-02T19:33:31.875Z,17.20
2019-05-02T19:36:02.794Z,17.20
2019-05-02T19:38:34.889Z,19.33
2019-05-02T19:41:08.723Z,17.90
2019-05-02T19:43:40.457Z,20.00
2019-05-02T19:46:06.266Z,20.93
2019-05-02T19:48:37.408Z,17.37
2019-05-02T19:51:10.627Z,16.77
2019-05-02T19:53:38.380Z,16.63
2019-05-02T19:56:07.820Z,15.23
2019-05-02T19:58:42.654Z,16.20
2019-05-02T20:01:12.548Z,15.53
2019-05-02T20:03:42.449Z,14.37
2019-05-02T20:06:12.843Z,13.90
2019-05-02T20:08:42.422Z,14.23
2019-05-02T20:11:12.599Z,13.40
2019-05-02T20:13:42.200Z,11.30
2019-05-02T20:16:18.836Z,12.83
2019-05-02T20:18:48.290Z,12.23
2019-05-02T20:21:27.924Z,12.27
2019-05-02T20:23:56.846Z,12.00
2019-05-02T20:26:26.313Z,12.37
2019-05-02T20:28:56.015Z,12.13
2019-05-02T20:31:25.484Z,13.70
2019-05-02T20:33:55.021Z,11.80
2019-05-02T20:36:24.727Z,12.07
2019-05-02T20:38:54.171Z,12.47
2019-05-02T20:41:23.642Z,11.83
2019-05-02T20:43:53.053Z,14.77
2019-05-02T20:46:22.440Z,12.00
2019-05-02T20:48:52.531Z,11.67
2019-05-02T20:51:22.859Z,11.40
2019-05-02T20:53:53.820Z,10.27
2019-05-02T20:56:23.274Z,11.13
2019-05-02T20:58:52.866Z,10.67
2019-05-02T21:01:22.542Z,11.03
2019-05-02T21:03:52.244Z,10.70
2019-05-02T21:06:43.368Z,10.60
2019-05-02T21:09:11.791Z,10.87
2019-05-02T21:11:42.958Z,11.10
2019-05-02T21:14:12.386Z,10.87
2019-05-02T21:16:41.821Z,9.90
2019-05-02T21:19:12.354Z,10.30
2019-05-02T21:21:42.649Z,10.33
2019-05-02T21:24:12.316Z,10.03
2019-05-02T21:26:42.140Z,10.23
2019-05-02T21:29:12.239Z,9.73
2019-05-02T21:31:42.565Z,9.17
2019-05-02T21:34:12.051Z,9.83
2019-05-02T21:36:42.511Z,10.10
2019-05-02T21:39:12.742Z,9.53
2019-05-02T21:41:42.437Z,8.30
2019-05-02T21:44:13.150Z,9.13
2019-05-02T21:46:42.659Z,9.30
2019-05-02T21:49:15.177Z,9.53
2019-05-02T21:51:46.253Z,10.27
2019-05-02T21:54:17.188Z,8.73
2019-05-02T21:56:48.186Z,8.90
2019-05-02T21:59:17.530Z,8.80
2019-05-02T22:01:51.944Z,9.43
2019-05-02T22:04:22.538Z,9.20
2019-05-02T22:06:53.333Z,9.13
2019-05-02T22:09:23.326Z,8.93
2019-05-02T22:11:52.890Z,8.33
2019-05-02T22:14:22.584Z,9.07
2019-05-02T22:16:53.021Z,8.90
2019-05-02T22:19:22.635Z,8.30
2019-05-02T22:21:52.612Z,8.93
2019-05-02T22:24:22.331Z,8.60
2019-05-02T22:26:52.569Z,8.50
2019-05-02T22:29:22.077Z,9.23
2019-05-02T22:31:54.190Z,8.27
2019-05-02T22:34:22.498Z,9.23
2019-05-02T22:36:53.855Z,10.00
2019-05-02T22:39:42.757Z,9.70
2019-05-02T22:42:12.839Z,9.50
2019-05-02T22:44:42.432Z,10.20
2019-05-02T22:47:13.936Z,10.60
2019-05-02T22:49:42.828Z,10.50
2019-05-02T22:52:14.382Z,11.80
2019-05-02T22:54:43.323Z,10.87
2019-05-02T22:57:14.292Z,9.10
2019-05-02T22:59:43.905Z,9.53
2019-05-02T23:02:13.745Z,9.97
2019-05-02T23:04:43.056Z,10.03
2019-05-02T23:07:12.700Z,9.47
2019-05-02T23:09:43.721Z,9.57
2019-05-02T23:12:13.403Z,9.67
2019-05-02T23:14:42.771Z,9.53
2019-05-02T23:17:12.846Z,9.30
2019-05-02T23:19:42.511Z,8.60
2019-05-02T23:22:12.738Z,9.87
2019-05-02T23:24:43.922Z,9.10
2019-05-02T23:27:17.936Z,8.73
2019-05-02T23:29:47.297Z,9.33
2019-05-02T23:32:16.766Z,9.30
2019-05-02T23:34:46.165Z,9.20
2019-05-02T23:37:15.605Z,8.93
2019-05-02T23:39:45.014Z,8.30
2019-05-02T23:42:14.379Z,8.97
2019-05-02T23:44:43.741Z,8.20
2019-05-02T23:47:13.047Z,8.33
2019-05-02T23:49:42.851Z,8.60
2019-05-02T23:52:12.240Z,8.27
2019-05-02T23:54:49.987Z,8.60
2019-05-02T23:57:12.606Z,8.40
2019-05-02T23:59:42.415Z,8.97
